Главная страница
METAR-TAF:

METAR-TAF

Аэропорты :

Port Meadville Airport

Meadville, Пенсильвания, США

широта: 41-37-35N, долгота: 080-12-53W, высота над уровнем моря: 427 м

Текущие метеонаблюдения

Эта сводка был подготовлена 54 минут назад, в 09:53 UTC
Штиль
Температура 11°C
Влажность 94%
Давление 1021 hPa
Видимость: 12.9 км
Рассеянная облачность на высоте 5000 фута

METAR: KGKJ 060953Z AUTO 00000KT 8SM BKN050 11/10 A3016 RMK AO2 SLP209 T01110100

Время: 06:47 (10:47 UTC)


TAF: отсутствует

Метеонаблюдения и прогнозы для более 4000 аэропортов (сводки METAR и TAF).

Имеющиеся станции представлены на карте желтыми и красными точками.

Чтобы увидеть название станции, наведите на нее мышь.

Затем щелкните, чтобы увидеть метеонаблюдения и метеопрогнозы.

Управление картой: чтобы увеличить масштаб, щелкните зеленые кнопки с черным крестиком; чтобы уменьшить масштаб, щелкните зеленую кнопку с тире; для просмотра соседних карт щелкайте зеленые стрелки.


METAR-TAF: